Latest Weather Observations for Mount Wellington

IDT60801

Issued at 1:02 pm EDT Thursday 18 December 2014 (issued every 30 minutes, with the page automatically refreshed every 10 minutes)

About weather observations | Map of weather stations | Latest weather observations for TAS | Other Formats
Station Details ID: 094087 Name: MOUNT WELLINGTON Lat: -42.90 Lon: 147.24 Height: 1260.47 m
Data from the previous 72 hours. | See also: Recent months at Mount Wellington
Date/Time
EDT
Temp
°C
App
Temp
°C
Dew
Point
Rel
Hum
%
Delta-T
°C
Wind Press
QNH
hPa
Press
MSL
hPa
Rain
since 9 am
mm
Dir
 
Spd
km/h
Gust
km/h
Spd
kts
Gust
kts
18/01:00pm 8.2 1.3 2.4 67 2.6 N 28 46 15 25 - - 0.0
18/12:42pm 8.7 0.8 2.5 65 2.8 NNW 33 52 18 28 - - 0.0
18/12:30pm 9.6 1.9 3.4 65 2.9 N 33 46 18 25 - - 0.0
18/12:00pm 7.0 1.4 3.4 78 1.6 N 22 33 12 18 - - 0.0
18/11:30am 6.2 0.6 3.7 84 1.1 N 22 32 12 17 - - 0.0
18/11:00am 6.6 1.0 3.4 80 1.5 N 22 28 12 15 - - 0.0
18/10:30am 6.3 -0.1 3.1 80 1.4 NNW 26 37 14 20 - - 0.0
18/10:01am 6.4 -1.4 2.9 78 1.6 NNW 33 54 18 29 - - 0.0
18/10:00am 6.4 -1.2 2.9 78 1.6 NNW 32 46 17 25 - - 0.0
18/09:30am 6.4 -0.9 2.5 76 1.7 NNW 30 50 16 27 - - 0.0
18/09:05am 5.7 -1.2 2.4 79 1.5 NNW 28 48 15 26 - - 0.0
18/09:00am 5.2 -1.3 2.4 82 1.2 NNW 26 43 14 23 - - 0.0
18/08:30am 4.2 -3.3 1.1 80 1.3 NW 30 39 16 21 - - 0.0
18/08:00am 3.8 -4.2 0.5 79 1.4 NW 32 43 17 23 - - 0.0
18/07:30am 3.1 -5.0 -0.2 79 1.3 NW 32 41 17 22 - - 0.0
18/07:00am 3.2 -5.5 -0.4 77 1.4 NW 35 46 19 25 - - 0.0
18/06:30am 2.6 -6.1 -0.7 79 1.3 NW 35 44 19 24 - - 0.0
18/06:00am 3.2 -5.1 -0.6 76 1.5 NW 33 43 18 23 - - 0.0
18/05:30am 3.1 -5.0 0.0 80 1.3 NW 32 39 17 21 - - 0.0
18/05:00am 2.2 -5.2 -0.4 83 1.0 WNW 28 32 15 17 - - 0.0
18/04:30am 2.1 -4.6 -0.8 81 1.1 WNW 24 28 13 15 - - 0.0
18/04:00am 2.8 -5.4 -1.0 76 1.5 NW 32 41 17 22 - - 0.0
18/03:30am 3.1 -6.4 -0.9 75 1.6 NNW 39 46 21 25 - - 0.0
18/03:00am 3.1 -6.1 -1.3 73 1.7 NNW 37 48 20 26 - - 0.0
18/02:30am 3.5 -6.2 -2.4 65 2.3 NNW 39 48 21 26 - - 0.0
18/02:00am 3.2 -6.5 -1.9 69 2.0 NNW 39 46 21 25 - - 0.0
18/01:30am 3.0 -6.2 -1.2 74 1.7 NNW 37 43 20 23 - - 0.0
18/01:00am 3.3 -5.2 -1.6 70 1.9 NNW 33 46 18 25 - - 0.0
18/12:30am 3.4 -4.1 -1.3 71 1.9 NW 28 35 15 19 - - 0.0
18/12:00am 3.1 -2.6 -1.1 74 1.7 NW 19 24 10 13 - - 0.0
 
Date/Time
EDT
Temp
°C
App
Temp
°C
Dew
Point
Rel
Hum
%
Delta-T
°C
Wind Press
QNH
hPa
Press
MSL
hPa
Rain
since 9 am
mm
Dir
 
Spd
km/h
Gust
km/h
Spd
kts
Gust
kts
17/11:30pm 3.4 -1.7 -1.7 69 2.0 N 15 17 8 9 - - 0.0
17/11:00pm 3.9 -1.1 -1.1 70 2.0 N 15 20 8 11 - - 0.0
17/10:30pm 4.2 -1.0 0.0 74 1.7 NNW 17 22 9 12 - - 0.0
17/10:00pm 4.0 0.0 0.5 78 1.5 NW 11 17 6 9 - - 0.0
17/09:30pm 4.5 1.4 1.2 79 1.4 N 7 11 4 6 - - 0.0
17/09:00pm 4.2 1.2 1.7 84 1.1 SE 7 9 4 5 - - 0.0
17/08:30pm 5.4 2.2 0.8 72 2.0 SSE 7 11 4 6 - - 0.0
17/08:00pm 5.8 -1.0 -2.0 57 3.1 WNW 24 33 13 18 - - 0.0
17/07:30pm 6.2 -0.2 0.7 68 2.3 WNW 24 30 13 16 - - 0.0
17/07:00pm 5.7 -1.8 1.2 73 1.9 WNW 30 37 16 20 - - 0.0
17/06:30pm 5.6 0.2 1.2 73 1.9 WNW 19 26 10 14 - - 0.0
17/06:00pm 6.5 0.9 0.0 63 2.7 NW 19 28 10 15 - - 0.0
17/05:30pm 7.2 1.3 -0.5 58 3.2 WNW 20 33 11 18 - - 0.0
17/05:00pm 7.9 2.3 0.9 61 3.0 NW 20 28 11 15 - - 0.0
17/04:30pm 6.4 0.6 -0.3 62 2.8 NW 20 32 11 17 - - 0.0
17/04:00pm 6.8 0.8 -1.8 54 3.5 W 20 37 11 20 - - 0.0
17/03:30pm 7.5 1.6 -0.5 57 3.4 WNW 20 32 11 17 - - 0.0
17/03:00pm 7.2 1.1 0.4 62 2.9 SW 22 33 12 18 - - 0.0
17/02:30pm 8.0 1.5 0.3 58 3.3 WSW 24 41 13 22 - - 0.0
17/02:00pm 4.6 -3.1 -0.2 71 2.0 W 30 44 16 24 - - 0.0
17/01:30pm 5.4 -0.4 2.1 79 1.4 WNW 22 32 12 17 - - 0.0
17/01:00pm 5.6 -2.3 1.0 72 2.0 W 32 43 17 23 - - 0.0
17/12:30pm 4.7 -2.4 1.6 80 1.3 WSW 28 41 15 22 - - 0.0
17/12:00pm 4.8 -2.1 2.3 84 1.1 W 28 37 15 20 - - 0.0
17/11:35am 5.2 -2.7 1.3 76 1.7 WSW 32 44 17 24 - - 0.0
17/11:30am 4.5 -4.3 1.4 80 1.3 WSW 37 52 20 28 - - 0.0
17/11:05am 2.0 -7.0 0.4 89 0.6 WSW 37 57 20 31 - - 0.0
17/11:00am 3.0 -5.0 1.5 90 0.6 WSW 33 44 18 24 - - 0.0
17/10:30am 1.5 -5.7 0.8 95 0.3 WSW 28 37 15 20 - - 0.0
17/10:07am 2.1 -5.1 0.6 90 0.6 WSW 28 48 15 26 - - 0.0
17/10:00am 2.4 -3.3 0.6 88 0.7 WSW 20 33 11 18 - - 0.0
17/09:30am 0.9 -7.7 0.2 95 0.3 WSW 35 52 19 28 - - 0.0
17/09:25am 0.8 -7.5 -0.3 92 0.4 WSW 33 52 18 28 - - 0.0
17/09:00am 1.7 -6.4 -0.1 88 0.7 WSW 32 43 17 23 - - 9.4
17/08:30am 1.3 -9.1 -0.3 89 0.6 WSW 44 65 24 35 - - 9.4
17/08:15am 0.6 -8.1 -0.3 94 0.4 WSW 35 57 19 31 - - 9.4
17/08:00am 0.6 -8.8 0.0 96 0.2 WSW 39 50 21 27 - - 9.4
17/07:30am 0.6 -10.2 -0.8 90 0.5 WSW 46 59 25 32 - - 9.4
17/07:02am 0.1 -10.8 -1.0 92 0.4 WSW 46 65 25 35 - - 9.4
17/07:00am 0.0 -11.3 -1.3 91 0.5 WSW 48 65 26 35 - - 9.4
17/06:39am 0.0 -9.5 -0.8 94 0.3 WSW 39 59 21 32 - - 9.4
17/06:30am 0.1 -8.7 -0.9 93 0.4 WSW 35 50 19 27 - - 9.4
17/06:25am 0.1 -9.1 -1.0 92 0.4 WSW 37 50 20 27 - - 9.4
17/06:06am 0.0 -10.3 -1.3 91 0.5 SW 43 67 23 36 - - 9.4
17/06:02am 0.0 -10.9 -1.3 91 0.5 WSW 46 67 25 36 - - 9.4
17/06:00am -0.1 -11.4 -1.5 90 0.5 WSW 48 67 26 36 - - 9.4
17/05:52am -0.2 -14.0 -1.8 89 0.6 WSW 61 82 33 44 - - 9.4
17/05:30am 0.0 -16.3 -1.7 88 0.6 WSW 74 98 40 53 - - 9.4
17/05:00am -0.1 -15.1 -1.8 88 0.6 WSW 67 85 36 46 - - 9.4
17/04:30am 0.2 -15.3 -1.5 88 0.7 WSW 70 89 38 48 - - 9.4
17/04:00am 0.4 -14.5 -1.2 89 0.6 WSW 67 87 36 47 - - 9.4
17/03:34am 0.6 -15.9 -0.5 92 0.4 WSW 76 96 41 52 - - 9.4
17/03:30am 0.6 -16.3 -0.7 91 0.5 WSW 78 95 42 51 - - 9.4
17/03:00am 0.9 -14.8 -0.5 90 0.5 WSW 72 95 39 51 - - 9.4
17/02:30am 0.9 -12.4 -0.4 91 0.5 WSW 59 83 32 45 - - 9.4
17/02:02am 0.9 -14.4 0.0 94 0.4 WSW 70 91 38 49 - - 9.4
17/02:00am 0.9 -14.8 -0.1 93 0.4 WSW 72 91 39 49 - - 9.4
17/01:31am 1.0 -15.8 0.1 94 0.4 WSW 78 98 42 53 - - 9.4
17/01:30am 1.0 -16.2 0.1 94 0.4 WSW 80 98 43 53 - - 9.4
17/01:00am 1.9 -12.2 1.6 98 0.1 WSW 65 91 35 49 - - 9.4
17/12:39am 2.1 -10.4 1.8 98 0.1 WSW 57 76 31 41 - - 9.2
17/12:30am 2.4 -9.9 2.1 98 0.1 WSW 56 70 30 38 - - 9.2
17/12:14am 2.5 -9.4 2.1 97 0.2 WSW 54 76 29 41 - - 9.2
17/12:00am 2.5 -8.7 2.1 97 0.2 WSW 50 65 27 35 - - 9.2
 
Date/Time
EDT
Temp
°C
App
Temp
°C
Dew
Point
Rel
Hum
%
Delta-T
°C
Wind Press
QNH
hPa
Press
MSL
hPa
Rain
since 9 am
mm
Dir
 
Spd
km/h
Gust
km/h
Spd
kts
Gust
kts
16/11:30pm 2.7 -9.2 2.3 97 0.2 WSW 54 76 29 41 - - 9.0
16/11:17pm 2.7 -8.0 2.3 97 0.2 WSW 48 78 26 42 - - 9.0
16/11:00pm 2.9 -7.8 2.5 97 0.2 WSW 48 61 26 33 - - 9.0
16/10:30pm 3.1 -10.1 2.5 96 0.3 W 61 83 33 45 - - 9.0
16/10:25pm 3.1 -9.7 2.5 96 0.3 W 59 83 32 45 - - 9.0
16/10:09pm 3.1 -8.0 2.5 96 0.3 WSW 50 70 27 38 - - 9.0
16/10:00pm 3.1 -7.6 2.4 95 0.3 WSW 48 65 26 35 - - 9.0
16/09:30pm 3.4 -9.1 2.1 91 0.6 WSW 57 78 31 42 - - 9.0
16/09:00pm 3.9 -9.9 3.0 94 0.4 W 65 85 35 46 - - 9.0
16/08:59pm 4.0 -9.8 3.1 94 0.4 W 65 85 35 46 - - 9.0
16/08:30pm 5.1 -7.5 3.6 90 0.7 WNW 59 78 32 42 - - 9.0
16/08:26pm 5.1 -7.0 4.1 93 0.5 WNW 57 78 31 42 - - 9.0
16/08:00pm 5.1 -6.9 4.7 97 0.2 WNW 57 70 31 38 - - 9.0
16/07:48pm 5.2 -6.3 4.6 96 0.3 WNW 54 72 29 39 - - 9.0
16/07:30pm 5.4 -7.8 4.5 94 0.4 NW 63 78 34 42 - - 9.0
16/07:00pm 5.8 -8.5 4.4 91 0.6 NW 69 91 37 49 - - 9.0
16/06:43pm 6.7 -6.2 5.8 94 0.4 WNW 63 95 34 51 - - 8.2
16/06:30pm 8.0 -2.8 6.0 87 1.0 WNW 52 72 28 39 - - 7.6
16/06:25pm 8.3 -2.0 6.3 87 1.0 WNW 50 65 27 35 - - 7.6
16/06:09pm 8.7 1.5 7.8 94 0.5 WNW 35 56 19 30 - - 7.6
16/06:00pm 9.2 2.6 7.8 91 0.7 WNW 32 46 17 25 - - 7.6
16/05:33pm 9.3 -0.1 7.1 86 1.1 WNW 46 65 25 35 - - 7.6
16/05:30pm 9.3 -0.1 7.3 87 1.0 WNW 46 61 25 33 - - 7.6
16/05:00pm 8.0 -1.0 6.5 90 0.7 WNW 43 76 23 41 - - 7.0
16/04:54pm 10.7 4.7 10.1 96 0.3 W 32 76 17 41 - - 4.0
16/04:49pm 11.0 5.7 9.9 93 0.6 W 28 50 15 27 - - 2.2
16/04:30pm 14.2 10.0 9.6 74 2.5 NNW 22 33 12 18 - - 2.2
16/04:00pm 14.9 8.8 9.7 71 2.9 NW 32 43 17 23 - - 2.2
16/03:30pm 13.6 5.9 10.2 80 1.9 NW 41 54 22 29 - - 2.2
16/03:00pm 14.2 6.9 11.7 85 1.4 NW 41 59 22 32 - - 2.2
16/02:30pm 11.6 3.8 9.9 89 0.9 NW 41 61 22 33 - - 2.2
16/02:27pm 12.3 5.1 10.5 89 1.0 NW 39 59 21 32 - - 0.8
16/02:26pm 12.5 5.7 10.7 89 1.0 NNW 37 52 20 28 - - 0.6
16/02:06pm 14.3 7.7 9.9 75 2.4 N 35 57 19 31 - - 0.0
16/02:00pm 14.6 8.4 10.0 74 2.6 N 33 48 18 26 - - 0.0
16/01:54pm 15.2 8.7 10.2 72 2.8 N 35 54 19 29 - - 0.0
16/01:30pm 14.3 8.3 10.7 79 2.0 N 33 46 18 25 - - 0.0
16/01:00pm 13.0 6.3 9.6 80 1.9 N 35 44 19 24 - - 0.0
16/12:30pm 13.9 7.7 9.5 75 2.4 N 32 50 17 27 - - 0.0
16/12:00pm 12.9 6.1 9.2 78 2.0 N 35 46 19 25 - - 0.0
16/11:30am 12.6 5.7 8.9 78 2.0 N 35 46 19 25 - - 0.0
16/11:00am 12.6 5.4 9.2 80 1.8 N 37 50 20 27 - - 0.0
16/10:30am 13.2 4.7 8.5 73 2.5 N 43 63 23 34 - - 0.0
16/10:14am 13.0 3.9 8.3 73 2.5 N 46 67 25 36 - - 0.0
16/10:00am 13.9 4.1 8.5 70 2.9 N 50 63 27 34 - - 0.0
16/09:30am 14.1 2.3 7.6 65 3.4 N 59 76 32 41 - - 0.0
16/09:00am 14.2 2.9 7.3 63 3.6 N 56 76 30 41 - - 0.0
16/08:34am 12.9 3.3 7.8 71 2.7 NNW 48 67 26 36 - - 0.0
16/08:30am 13.3 2.8 7.3 67 3.1 NNW 52 67 28 36 - - 0.0
16/08:08am 14.2 2.7 7.0 62 3.8 NNW 57 78 31 42 - - 0.0
16/08:00am 14.0 2.1 6.8 62 3.7 NNW 59 78 32 42 - - 0.0
16/07:31am 13.0 0.3 6.8 66 3.2 NNW 63 83 34 45 - - 0.0
16/07:30am 13.0 -0.1 6.8 66 3.2 NNW 65 83 35 45 - - 0.0
16/07:00am 12.4 -1.0 7.1 70 2.7 N 67 85 36 46 - - 0.0
16/06:30am 10.7 -0.7 7.6 81 1.6 N 57 78 31 42 - - 0.0
16/06:00am 10.4 -0.5 5.6 72 2.4 NNW 52 72 28 39 - - 0.0
16/05:46am 9.1 -0.6 5.7 79 1.7 NNW 46 67 25 36 - - 0.0
16/05:30am 9.3 0.0 5.7 78 1.8 NNW 44 59 24 32 - - 0.0
16/05:00am 9.0 0.0 6.3 83 1.3 N 43 50 23 27 - - 0.0
16/04:30am 10.0 -0.2 5.4 73 2.3 N 48 61 26 33 - - 0.0
16/04:00am 9.4 1.4 7.3 87 1.1 N 39 50 21 27 - - 0.0
16/03:30am 10.2 2.5 7.3 82 1.5 N 37 44 20 24 - - 0.0
16/03:00am 10.2 3.3 7.1 81 1.6 N 33 41 18 22 - - 0.0
16/02:30am 9.4 1.3 -0.5 50 4.2 N 32 39 17 21 - - 0.0
16/02:00am 9.2 1.5 -0.4 51 4.1 NNW 30 37 16 20 - - 0.0
16/01:30am 9.8 2.2 0.7 53 4.0 NNW 30 35 16 19 - - 0.0
16/01:00am 8.1 0.8 4.5 78 1.7 N 32 41 17 22 - - 0.0
16/12:30am 7.3 2.0 6.6 95 0.3 N 24 30 13 16 - - 0.0
16/12:00am 7.3 3.0 7.0 98 0.1 N 19 22 10 12 - - 0.0
 
Date/Time
EDT
Temp
°C
App
Temp
°C
Dew
Point
Rel
Hum
%
Delta-T
°C
Wind Press
QNH
hPa
Press
MSL
hPa
Rain
since 9 am
mm
Dir
 
Spd
km/h
Gust
km/h
Spd
kts
Gust
kts
15/11:30pm 8.1 4.7 7.8 98 0.2 N 15 19 8 10 - - 0.0
15/11:00pm 7.7 4.6 7.4 98 0.2 NNE 13 17 7 9 - - 0.0
15/10:30pm 8.2 5.6 7.9 98 0.2 NE 11 17 6 9 - - 0.0
15/10:00pm 8.4 5.5 8.1 98 0.2 ESE 13 17 7 9 - - 0.0
15/09:30pm 8.6 6.5 8.3 98 0.2 SE 9 13 5 7 - - 0.0
15/09:00pm 8.3 5.4 8.0 98 0.2 SE 13 20 7 11 - - 0.0
15/08:30pm 8.6 5.3 8.2 97 0.2 SE 15 19 8 10 - - 0.0
15/08:00pm 9.1 6.4 7.2 88 1.0 SE 11 13 6 7 - - 0.0
15/07:30pm 9.5 6.7 8.4 93 0.6 E 13 19 7 10 - - 0.0
15/07:00pm 9.2 6.9 8.9 98 0.2 ESE 11 17 6 9 - - 0.0
15/06:30pm 9.7 7.5 9.2 97 0.3 ESE 11 15 6 8 - - 0.0
15/06:00pm 9.9 7.7 9.3 96 0.3 SE 11 13 6 7 - - 0.0
15/05:30pm 10.5 8.3 9.4 93 0.6 SE 11 17 6 9 - - 0.0
15/05:00pm 11.4 9.9 9.0 85 1.3 ESE 7 11 4 6 - - 0.0
15/04:30pm 11.9 10.3 8.7 81 1.7 SE 7 11 4 6 - - 0.0
15/04:00pm 11.0 8.3 9.1 88 1.0 SSE 13 19 7 10 - - 0.0
15/03:30pm 11.8 10.3 9.0 83 1.5 ESE 7 11 4 6 - - 0.0
15/03:00pm 12.8 11.2 8.9 77 2.1 E 7 11 4 6 - - 0.0
15/02:30pm 14.7 11.8 8.2 65 3.5 N 13 24 7 13 - - 0.0
15/02:00pm 14.1 10.2 7.2 63 3.6 NNE 17 22 9 12 - - 0.0
15/01:30pm 13.2 10.1 8.7 74 2.4 NE 15 20 8 11 - - 0.0

Other Formats:

Comma delimited format used in spreadsheet applications
http://www.bom.gov.au/fwo/IDT60801/IDT60801.95979.axf

JavaScript Object Notation format (JSON) in row-major order
http://www.bom.gov.au/fwo/IDT60801/IDT60801.95979.json